sensor_id;sensor_type;location;lat;lon;timestamp;P1;durP1;ratioP1;P2;durP2;ratioP2
23628;SDS011;11991;57.150;-2.134;2023-06-05T00:02:25;1.23;;;1.13;;
23628;SDS011;11991;57.150;-2.134;2023-06-05T00:04:54;1.20;;;1.10;;
23628;SDS011;11991;57.150;-2.134;2023-06-05T00:07:21;1.30;;;1.20;;
23628;SDS011;11991;57.150;-2.134;2023-06-05T00:09:49;1.15;;;1.00;;
23628;SDS011;11991;57.150;-2.134;2023-06-05T00:12:16;1.10;;;1.00;;
23628;SDS011;11991;57.150;-2.134;2023-06-05T00:14:43;1.40;;;1.10;;
23628;SDS011;11991;57.150;-2.134;2023-06-05T00:17:10;1.20;;;1.10;;
23628;SDS011;11991;57.150;-2.134;2023-06-05T00:19:38;1.33;;;1.00;;
23628;SDS011;11991;57.150;-2.134;2023-06-05T00:22:05;1.00;;;0.90;;
23628;SDS011;11991;57.150;-2.134;2023-06-05T00:24:32;1.67;;;1.50;;
23628;SDS011;11991;57.150;-2.134;2023-06-05T00:26:59;2.25;;;1.95;;
23628;SDS011;11991;57.150;-2.134;2023-06-05T00:29:26;1.73;;;1.30;;
23628;SDS011;11991;57.150;-2.134;2023-06-05T00:31:54;2.40;;;1.52;;
23628;SDS011;11991;57.150;-2.134;2023-06-05T00:34:21;1.95;;;1.40;;
23628;SDS011;11991;57.150;-2.134;2023-06-05T00:36:48;1.65;;;1.30;;
23628;SDS011;11991;57.150;-2.134;2023-06-05T00:39:17;2.30;;;1.42;;
23628;SDS011;11991;57.150;-2.134;2023-06-05T00:41:47;2.10;;;1.77;;
23628;SDS011;11991;57.150;-2.134;2023-06-05T00:44:14;2.97;;;1.85;;
23628;SDS011;11991;57.150;-2.134;2023-06-05T00:46:44;1.60;;;1.50;;
23628;SDS011;11991;57.150;-2.134;2023-06-05T00:49:13;2.67;;;1.70;;
23628;SDS011;11991;57.150;-2.134;2023-06-05T00:51:40;4.32;;;2.92;;
23628;SDS011;11991;57.150;-2.134;2023-06-05T00:54:10;3.40;;;2.53;;
23628;SDS011;11991;57.150;-2.134;2023-06-05T00:56:40;3.85;;;2.30;;
23628;SDS011;11991;57.150;-2.134;2023-06-05T00:59:09;3.50;;;2.55;;
23628;SDS011;11991;57.150;-2.134;2023-06-05T01:01:38;2.63;;;2.00;;
23628;SDS011;11991;57.150;-2.134;2023-06-05T01:04:07;1.90;;;1.67;;
23628;SDS011;11991;57.150;-2.134;2023-06-05T01:06:34;2.40;;;1.80;;
23628;SDS011;11991;57.150;-2.134;2023-06-05T01:09:02;2.78;;;2.00;;
23628;SDS011;11991;57.150;-2.134;2023-06-05T01:11:37;1.88;;;1.48;;
23628;SDS011;11991;57.150;-2.134;2023-06-05T01:17:01;2.20;;;1.60;;
23628;SDS011;11991;57.150;-2.134;2023-06-05T01:19:30;2.90;;;1.83;;
23628;SDS011;11991;57.150;-2.134;2023-06-05T01:21:59;2.75;;;1.73;;
23628;SDS011;11991;57.150;-2.134;2023-06-05T01:24:27;1.73;;;1.58;;
23628;SDS011;11991;57.150;-2.134;2023-06-05T01:32:15;2.75;;;2.13;;
23628;SDS011;11991;57.150;-2.134;2023-06-05T01:34:45;3.00;;;2.20;;
23628;SDS011;11991;57.150;-2.134;2023-06-05T01:37:15;2.15;;;1.67;;
23628;SDS011;11991;57.150;-2.134;2023-06-05T01:39:46;1.55;;;1.20;;
23628;SDS011;11991;57.150;-2.134;2023-06-05T01:42:16;1.70;;;1.50;;
23628;SDS011;11991;57.150;-2.134;2023-06-05T01:44:43;2.55;;;1.80;;
23628;SDS011;11991;57.150;-2.134;2023-06-05T01:47:11;4.15;;;2.53;;
23628;SDS011;11991;57.150;-2.134;2023-06-05T01:49:39;4.70;;;3.00;;
23628;SDS011;11991;57.150;-2.134;2023-06-05T01:52:07;3.20;;;2.10;;
23628;SDS011;11991;57.150;-2.134;2023-06-05T01:54:34;5.90;;;4.00;;
23628;SDS011;11991;57.150;-2.134;2023-06-05T01:57:01;6.13;;;3.95;;
23628;SDS011;11991;57.150;-2.134;2023-06-05T01:59:31;3.80;;;2.55;;
23628;SDS011;11991;57.150;-2.134;2023-06-05T02:02:00;6.93;;;3.72;;
23628;SDS011;11991;57.150;-2.134;2023-06-05T02:04:29;4.45;;;2.72;;
23628;SDS011;11991;57.150;-2.134;2023-06-05T02:06:56;5.32;;;3.40;;
23628;SDS011;11991;57.150;-2.134;2023-06-05T02:09:30;4.30;;;3.05;;
23628;SDS011;11991;57.150;-2.134;2023-06-05T02:12:00;3.70;;;2.97;;
23628;SDS011;11991;57.150;-2.134;2023-06-05T02:14:30;6.05;;;3.80;;
23628;SDS011;11991;57.150;-2.134;2023-06-05T02:16:58;5.18;;;3.92;;
23628;SDS011;11991;57.150;-2.134;2023-06-05T02:19:25;4.82;;;3.40;;
23628;SDS011;11991;57.150;-2.134;2023-06-05T02:21:53;5.78;;;3.47;;
23628;SDS011;11991;57.150;-2.134;2023-06-05T02:24:20;5.63;;;2.85;;
23628;SDS011;11991;57.150;-2.134;2023-06-05T02:26:49;4.38;;;3.35;;
23628;SDS011;11991;57.150;-2.134;2023-06-05T02:29:16;3.38;;;2.17;;
23628;SDS011;11991;57.150;-2.134;2023-06-05T02:31:45;4.93;;;3.10;;
23628;SDS011;11991;57.150;-2.134;2023-06-05T02:34:12;2.90;;;2.10;;
23628;SDS011;11991;57.150;-2.134;2023-06-05T02:36:39;4.28;;;2.97;;
23628;SDS011;11991;57.150;-2.134;2023-06-05T02:39:07;8.18;;;4.60;;
23628;SDS011;11991;57.150;-2.134;2023-06-05T02:41:35;5.00;;;3.05;;
23628;SDS011;11991;57.150;-2.134;2023-06-05T02:44:03;4.43;;;3.50;;
23628;SDS011;11991;57.150;-2.134;2023-06-05T02:46:30;5.10;;;3.53;;
23628;SDS011;11991;57.150;-2.134;2023-06-05T02:48:58;6.57;;;3.05;;
23628;SDS011;11991;57.150;-2.134;2023-06-05T02:51:25;4.85;;;3.25;;
23628;SDS011;11991;57.150;-2.134;2023-06-05T02:53:53;4.63;;;3.22;;
23628;SDS011;11991;57.150;-2.134;2023-06-05T02:56:20;5.15;;;3.38;;
23628;SDS011;11991;57.150;-2.134;2023-06-05T02:58:48;4.97;;;3.42;;
23628;SDS011;11991;57.150;-2.134;2023-06-05T03:01:16;5.50;;;3.15;;
23628;SDS011;11991;57.150;-2.134;2023-06-05T03:03:45;5.60;;;3.35;;
23628;SDS011;11991;57.150;-2.134;2023-06-05T03:06:16;5.18;;;3.58;;
23628;SDS011;11991;57.150;-2.134;2023-06-05T03:08:48;5.72;;;4.07;;
23628;SDS011;11991;57.150;-2.134;2023-06-05T03:11:18;4.38;;;3.25;;
23628;SDS011;11991;57.150;-2.134;2023-06-05T03:13:46;4.18;;;2.97;;
23628;SDS011;11991;57.150;-2.134;2023-06-05T03:16:13;4.45;;;2.63;;
23628;SDS011;11991;57.150;-2.134;2023-06-05T03:18:47;4.90;;;3.08;;
23628;SDS011;11991;57.150;-2.134;2023-06-05T03:21:14;3.65;;;2.53;;
23628;SDS011;11991;57.150;-2.134;2023-06-05T03:23:41;5.03;;;3.45;;
23628;SDS011;11991;57.150;-2.134;2023-06-05T03:26:11;6.57;;;3.70;;
23628;SDS011;11991;57.150;-2.134;2023-06-05T03:28:39;3.80;;;2.70;;
23628;SDS011;11991;57.150;-2.134;2023-06-05T03:31:09;4.90;;;3.10;;
23628;SDS011;11991;57.150;-2.134;2023-06-05T03:33:40;4.38;;;2.97;;
23628;SDS011;11991;57.150;-2.134;2023-06-05T03:36:08;3.65;;;2.55;;
23628;SDS011;11991;57.150;-2.134;2023-06-05T03:38:36;4.18;;;2.78;;
23628;SDS011;11991;57.150;-2.134;2023-06-05T03:41:03;4.18;;;2.85;;
23628;SDS011;11991;57.150;-2.134;2023-06-05T03:43:30;4.13;;;2.72;;
23628;SDS011;11991;57.150;-2.134;2023-06-05T03:45:57;2.47;;;1.88;;
23628;SDS011;11991;57.150;-2.134;2023-06-05T03:48:25;3.13;;;2.38;;
23628;SDS011;11991;57.150;-2.134;2023-06-05T03:50:54;3.05;;;2.08;;
23628;SDS011;11991;57.150;-2.134;2023-06-05T03:53:22;3.47;;;2.47;;
23628;SDS011;11991;57.150;-2.134;2023-06-05T03:55:50;1.88;;;1.40;;
23628;SDS011;11991;57.150;-2.134;2023-06-05T03:58:26;2.80;;;1.67;;
23628;SDS011;11991;57.150;-2.134;2023-06-05T04:00:55;2.92;;;1.95;;
23628;SDS011;11991;57.150;-2.134;2023-06-05T04:03:22;3.42;;;2.03;;
23628;SDS011;11991;57.150;-2.134;2023-06-05T04:05:54;3.70;;;2.78;;
23628;SDS011;11991;57.150;-2.134;2023-06-05T04:08:21;2.17;;;1.70;;
23628;SDS011;11991;57.150;-2.134;2023-06-05T04:10:49;3.83;;;2.25;;
23628;SDS011;11991;57.150;-2.134;2023-06-05T04:13:17;3.72;;;2.33;;
23628;SDS011;11991;57.150;-2.134;2023-06-05T04:15:44;2.72;;;1.92;;
23628;SDS011;11991;57.150;-2.134;2023-06-05T04:18:12;1.83;;;1.35;;
23628;SDS011;11991;57.150;-2.134;2023-06-05T04:20:39;2.42;;;1.30;;
23628;SDS011;11991;57.150;-2.134;2023-06-05T04:23:08;2.50;;;1.88;;
23628;SDS011;11991;57.150;-2.134;2023-06-05T04:25:39;2.33;;;1.63;;
23628;SDS011;11991;57.150;-2.134;2023-06-05T04:28:13;1.75;;;1.35;;
23628;SDS011;11991;57.150;-2.134;2023-06-05T04:30:42;2.70;;;2.08;;
23628;SDS011;11991;57.150;-2.134;2023-06-05T04:33:14;2.50;;;1.80;;
23628;SDS011;11991;57.150;-2.134;2023-06-05T04:35:41;1.70;;;1.38;;
23628;SDS011;11991;57.150;-2.134;2023-06-05T04:38:09;2.45;;;1.70;;
23628;SDS011;11991;57.150;-2.134;2023-06-05T04:40:36;2.28;;;1.80;;
23628;SDS011;11991;57.150;-2.134;2023-06-05T04:43:03;2.20;;;1.63;;
23628;SDS011;11991;57.150;-2.134;2023-06-05T04:45:30;3.28;;;2.03;;
23628;SDS011;11991;57.150;-2.134;2023-06-05T04:47:57;2.63;;;2.20;;
23628;SDS011;11991;57.150;-2.134;2023-06-05T04:50:28;2.17;;;1.73;;
23628;SDS011;11991;57.150;-2.134;2023-06-05T04:53:09;2.65;;;1.63;;
23628;SDS011;11991;57.150;-2.134;2023-06-05T04:55:39;2.60;;;1.92;;
23628;SDS011;11991;57.150;-2.134;2023-06-05T04:58:06;2.10;;;1.38;;
23628;SDS011;11991;57.150;-2.134;2023-06-05T05:00:33;2.20;;;1.63;;
23628;SDS011;11991;57.150;-2.134;2023-06-05T05:03:04;1.38;;;1.25;;
23628;SDS011;11991;57.150;-2.134;2023-06-05T05:05:31;3.03;;;2.17;;
23628;SDS011;11991;57.150;-2.134;2023-06-05T05:07:59;2.72;;;1.88;;
23628;SDS011;11991;57.150;-2.134;2023-06-05T05:10:26;3.28;;;2.05;;
23628;SDS011;11991;57.150;-2.134;2023-06-05T05:12:54;2.97;;;2.00;;
23628;SDS011;11991;57.150;-2.134;2023-06-05T05:15:21;4.35;;;2.92;;
23628;SDS011;11991;57.150;-2.134;2023-06-05T05:17:48;2.83;;;2.20;;
23628;SDS011;11991;57.150;-2.134;2023-06-05T05:20:16;3.30;;;2.17;;
23628;SDS011;11991;57.150;-2.134;2023-06-05T05:22:45;3.05;;;2.20;;
23628;SDS011;11991;57.150;-2.134;2023-06-05T05:25:13;2.63;;;2.10;;
23628;SDS011;11991;57.150;-2.134;2023-06-05T05:27:41;4.95;;;3.45;;
23628;SDS011;11991;57.150;-2.134;2023-06-05T05:30:08;4.38;;;3.00;;
23628;SDS011;11991;57.150;-2.134;2023-06-05T05:32:36;3.47;;;1.95;;
23628;SDS011;11991;57.150;-2.134;2023-06-05T05:35:04;3.75;;;2.20;;
23628;SDS011;11991;57.150;-2.134;2023-06-05T05:37:32;2.65;;;1.95;;
23628;SDS011;11991;57.150;-2.134;2023-06-05T05:39:59;2.60;;;2.00;;
23628;SDS011;11991;57.150;-2.134;2023-06-05T05:42:26;2.10;;;1.58;;
23628;SDS011;11991;57.150;-2.134;2023-06-05T05:44:54;1.70;;;1.50;;
23628;SDS011;11991;57.150;-2.134;2023-06-05T05:47:21;1.45;;;1.20;;
23628;SDS011;11991;57.150;-2.134;2023-06-05T05:49:48;3.38;;;2.35;;
23628;SDS011;11991;57.150;-2.134;2023-06-05T05:52:15;3.38;;;2.00;;
23628;SDS011;11991;57.150;-2.134;2023-06-05T05:54:42;2.92;;;1.77;;
23628;SDS011;11991;57.150;-2.134;2023-06-05T05:57:09;3.17;;;2.10;;
23628;SDS011;11991;57.150;-2.134;2023-06-05T05:59:37;2.72;;;1.95;;
23628;SDS011;11991;57.150;-2.134;2023-06-05T06:02:04;3.97;;;2.90;;
23628;SDS011;11991;57.150;-2.134;2023-06-05T06:04:36;4.20;;;2.53;;
23628;SDS011;11991;57.150;-2.134;2023-06-05T06:07:04;2.83;;;2.22;;
23628;SDS011;11991;57.150;-2.134;2023-06-05T06:09:32;2.50;;;1.33;;
23628;SDS011;11991;57.150;-2.134;2023-06-05T06:11:59;2.03;;;1.70;;
23628;SDS011;11991;57.150;-2.134;2023-06-05T06:14:32;2.28;;;1.40;;
23628;SDS011;11991;57.150;-2.134;2023-06-05T06:17:00;2.42;;;1.90;;
23628;SDS011;11991;57.150;-2.134;2023-06-05T06:19:28;3.03;;;2.10;;
23628;SDS011;11991;57.150;-2.134;2023-06-05T06:21:55;3.88;;;2.47;;
23628;SDS011;11991;57.150;-2.134;2023-06-05T06:24:22;4.35;;;2.33;;
23628;SDS011;11991;57.150;-2.134;2023-06-05T06:26:50;4.10;;;2.30;;
23628;SDS011;11991;57.150;-2.134;2023-06-05T06:29:19;2.25;;;1.80;;
23628;SDS011;11991;57.150;-2.134;2023-06-05T06:31:50;3.03;;;2.25;;
23628;SDS011;11991;57.150;-2.134;2023-06-05T06:34:17;4.03;;;2.85;;
23628;SDS011;11991;57.150;-2.134;2023-06-05T06:36:45;2.45;;;2.13;;
23628;SDS011;11991;57.150;-2.134;2023-06-05T06:39:13;2.65;;;2.17;;
23628;SDS011;11991;57.150;-2.134;2023-06-05T06:41:40;2.38;;;1.90;;
23628;SDS011;11991;57.150;-2.134;2023-06-05T06:44:07;3.72;;;2.42;;
23628;SDS011;11991;57.150;-2.134;2023-06-05T06:46:34;2.25;;;1.80;;
23628;SDS011;11991;57.150;-2.134;2023-06-05T06:49:02;3.47;;;2.63;;
23628;SDS011;11991;57.150;-2.134;2023-06-05T06:51:30;2.25;;;2.00;;
23628;SDS011;11991;57.150;-2.134;2023-06-05T06:53:59;2.40;;;1.80;;
23628;SDS011;11991;57.150;-2.134;2023-06-05T06:56:26;2.47;;;1.85;;
23628;SDS011;11991;57.150;-2.134;2023-06-05T06:58:54;2.50;;;2.05;;
23628;SDS011;11991;57.150;-2.134;2023-06-05T07:01:22;2.20;;;1.63;;
23628;SDS011;11991;57.150;-2.134;2023-06-05T07:03:51;4.13;;;2.22;;
23628;SDS011;11991;57.150;-2.134;2023-06-05T07:06:18;1.77;;;1.45;;
23628;SDS011;11991;57.150;-2.134;2023-06-05T07:08:48;1.65;;;1.23;;
23628;SDS011;11991;57.150;-2.134;2023-06-05T07:11:15;2.55;;;1.95;;
23628;SDS011;11991;57.150;-2.134;2023-06-05T07:13:42;1.92;;;1.35;;
23628;SDS011;11991;57.150;-2.134;2023-06-05T07:16:09;3.00;;;1.90;;
23628;SDS011;11991;57.150;-2.134;2023-06-05T07:18:37;1.95;;;1.73;;
23628;SDS011;11991;57.150;-2.134;2023-06-05T07:21:04;2.08;;;1.58;;
23628;SDS011;11991;57.150;-2.134;2023-06-05T07:23:32;2.90;;;2.08;;
23628;SDS011;11991;57.150;-2.134;2023-06-05T07:26:00;4.15;;;2.85;;
23628;SDS011;11991;57.150;-2.134;2023-06-05T07:28:27;2.88;;;1.92;;
23628;SDS011;11991;57.150;-2.134;2023-06-05T07:30:54;1.40;;;1.20;;
23628;SDS011;11991;57.150;-2.134;2023-06-05T07:33:21;2.03;;;1.38;;
23628;SDS011;11991;57.150;-2.134;2023-06-05T07:35:58;1.98;;;1.10;;
23628;SDS011;11991;57.150;-2.134;2023-06-05T07:38:26;1.85;;;1.48;;
23628;SDS011;11991;57.150;-2.134;2023-06-05T07:40:56;2.50;;;2.00;;
23628;SDS011;11991;57.150;-2.134;2023-06-05T07:43:25;2.30;;;1.80;;
23628;SDS011;11991;57.150;-2.134;2023-06-05T07:45:52;3.60;;;2.47;;
23628;SDS011;11991;57.150;-2.134;2023-06-05T07:48:19;2.58;;;2.15;;
23628;SDS011;11991;57.150;-2.134;2023-06-05T07:50:47;2.72;;;2.10;;
23628;SDS011;11991;57.150;-2.134;2023-06-05T07:53:14;3.33;;;2.28;;
23628;SDS011;11991;57.150;-2.134;2023-06-05T07:55:41;4.63;;;3.30;;
23628;SDS011;11991;57.150;-2.134;2023-06-05T07:58:08;3.05;;;2.00;;
23628;SDS011;11991;57.150;-2.134;2023-06-05T08:00:35;3.67;;;2.55;;
23628;SDS011;11991;57.150;-2.134;2023-06-05T08:03:03;6.07;;;2.30;;
23628;SDS011;11991;57.150;-2.134;2023-06-05T08:05:32;3.55;;;1.80;;
23628;SDS011;11991;57.150;-2.134;2023-06-05T08:08:01;6.03;;;2.63;;
23628;SDS011;11991;57.150;-2.134;2023-06-05T08:10:28;4.82;;;3.30;;
23628;SDS011;11991;57.150;-2.134;2023-06-05T08:12:56;3.33;;;2.45;;
23628;SDS011;11991;57.150;-2.134;2023-06-05T08:15:23;3.72;;;2.58;;
23628;SDS011;11991;57.150;-2.134;2023-06-05T08:17:50;2.65;;;2.00;;
23628;SDS011;11991;57.150;-2.134;2023-06-05T08:20:17;2.22;;;1.77;;
23628;SDS011;11991;57.150;-2.134;2023-06-05T08:22:45;3.08;;;1.83;;
23628;SDS011;11991;57.150;-2.134;2023-06-05T08:25:13;2.45;;;1.83;;
23628;SDS011;11991;57.150;-2.134;2023-06-05T08:27:41;3.83;;;2.97;;
23628;SDS011;11991;57.150;-2.134;2023-06-05T08:30:08;5.00;;;3.30;;
23628;SDS011;11991;57.150;-2.134;2023-06-05T08:32:36;3.42;;;2.50;;
23628;SDS011;11991;57.150;-2.134;2023-06-05T08:35:04;5.10;;;3.30;;
23628;SDS011;11991;57.150;-2.134;2023-06-05T08:37:31;2.97;;;2.05;;
23628;SDS011;11991;57.150;-2.134;2023-06-05T08:39:59;4.03;;;2.15;;
23628;SDS011;11991;57.150;-2.134;2023-06-05T08:42:28;1.92;;;1.38;;
23628;SDS011;11991;57.150;-2.134;2023-06-05T08:44:55;5.40;;;3.00;;
23628;SDS011;11991;57.150;-2.134;2023-06-05T08:47:28;1.70;;;1.42;;
23628;SDS011;11991;57.150;-2.134;2023-06-05T08:50:01;2.95;;;2.05;;
23628;SDS011;11991;57.150;-2.134;2023-06-05T08:52:34;2.85;;;2.17;;
23628;SDS011;11991;57.150;-2.134;2023-06-05T08:55:04;2.85;;;1.88;;
23628;SDS011;11991;57.150;-2.134;2023-06-05T08:57:33;4.18;;;2.40;;
23628;SDS011;11991;57.150;-2.134;2023-06-05T09:00:03;3.35;;;1.95;;
23628;SDS011;11991;57.150;-2.134;2023-06-05T09:02:34;2.47;;;1.45;;
23628;SDS011;11991;57.150;-2.134;2023-06-05T09:05:03;2.30;;;1.45;;
23628;SDS011;11991;57.150;-2.134;2023-06-05T09:07:32;1.85;;;1.45;;
23628;SDS011;11991;57.150;-2.134;2023-06-05T09:09:59;1.23;;;1.13;;
23628;SDS011;11991;57.150;-2.134;2023-06-05T09:12:26;3.20;;;2.20;;
23628;SDS011;11991;57.150;-2.134;2023-06-05T09:14:54;2.15;;;1.60;;
23628;SDS011;11991;57.150;-2.134;2023-06-05T09:17:23;2.67;;;2.13;;
23628;SDS011;11991;57.150;-2.134;2023-06-05T09:19:51;3.42;;;1.70;;
23628;SDS011;11991;57.150;-2.134;2023-06-05T09:22:31;2.67;;;2.00;;
23628;SDS011;11991;57.150;-2.134;2023-06-05T09:25:00;1.90;;;1.70;;
23628;SDS011;11991;57.150;-2.134;2023-06-05T09:27:28;2.78;;;2.00;;
23628;SDS011;11991;57.150;-2.134;2023-06-05T09:30:01;4.70;;;2.88;;
23628;SDS011;11991;57.150;-2.134;2023-06-05T09:32:31;2.80;;;1.40;;
23628;SDS011;11991;57.150;-2.134;2023-06-05T09:34:58;5.47;;;3.40;;
23628;SDS011;11991;57.150;-2.134;2023-06-05T09:37:35;2.85;;;2.17;;
23628;SDS011;11991;57.150;-2.134;2023-06-05T09:40:03;2.75;;;2.15;;
23628;SDS011;11991;57.150;-2.134;2023-06-05T09:42:32;4.20;;;2.63;;
23628;SDS011;11991;57.150;-2.134;2023-06-05T09:45:01;2.60;;;1.70;;
23628;SDS011;11991;57.150;-2.134;2023-06-05T09:47:28;3.25;;;1.73;;
23628;SDS011;11991;57.150;-2.134;2023-06-05T09:50:20;2.03;;;1.83;;
23628;SDS011;11991;57.150;-2.134;2023-06-05T09:52:50;2.15;;;1.35;;
23628;SDS011;11991;57.150;-2.134;2023-06-05T09:55:18;2.15;;;1.95;;
23628;SDS011;11991;57.150;-2.134;2023-06-05T09:57:48;2.45;;;1.60;;
23628;SDS011;11991;57.150;-2.134;2023-06-05T10:00:15;1.13;;;1.00;;
23628;SDS011;11991;57.150;-2.134;2023-06-05T10:02:45;1.20;;;1.10;;
23628;SDS011;11991;57.150;-2.134;2023-06-05T10:05:13;0.90;;;0.77;;
23628;SDS011;11991;57.150;-2.134;2023-06-05T10:07:41;1.02;;;0.90;;
23628;SDS011;11991;57.150;-2.134;2023-06-05T10:10:09;1.27;;;1.00;;
23628;SDS011;11991;57.150;-2.134;2023-06-05T10:12:37;0.60;;;0.60;;
23628;SDS011;11991;57.150;-2.134;2023-06-05T10:15:05;1.15;;;0.85;;
23628;SDS011;11991;57.150;-2.134;2023-06-05T10:17:36;1.00;;;0.80;;
23628;SDS011;11991;57.150;-2.134;2023-06-05T10:20:06;1.05;;;0.80;;
23628;SDS011;11991;57.150;-2.134;2023-06-05T10:22:35;1.55;;;1.20;;
23628;SDS011;11991;57.150;-2.134;2023-06-05T10:25:04;0.82;;;0.70;;
23628;SDS011;11991;57.150;-2.134;2023-06-05T10:38:20;0.77;;;0.77;;
23628;SDS011;11991;57.150;-2.134;2023-06-05T10:40:53;0.90;;;0.80;;
23628;SDS011;11991;57.150;-2.134;2023-06-05T10:43:25;1.08;;;0.80;;
23628;SDS011;11991;57.150;-2.134;2023-06-05T10:45:57;0.90;;;0.90;;
23628;SDS011;11991;57.150;-2.134;2023-06-05T10:51:47;0.90;;;0.75;;
23628;SDS011;11991;57.150;-2.134;2023-06-05T10:59:38;0.88;;;0.70;;
23628;SDS011;11991;57.150;-2.134;2023-06-05T11:07:22;1.08;;;0.88;;
23628;SDS011;11991;57.150;-2.134;2023-06-05T11:15:12;0.68;;;0.65;;
23628;SDS011;11991;57.150;-2.134;2023-06-05T11:17:46;1.23;;;0.80;;
23628;SDS011;11991;57.150;-2.134;2023-06-05T11:27:49;0.80;;;0.77;;
23628;SDS011;11991;57.150;-2.134;2023-06-05T11:30:17;0.65;;;0.60;;
23628;SDS011;11991;57.150;-2.134;2023-06-05T11:33:18;1.02;;;0.95;;
23628;SDS011;11991;57.150;-2.134;2023-06-05T11:35:48;0.63;;;0.63;;
23628;SDS011;11991;57.150;-2.134;2023-06-05T11:38:19;1.33;;;1.23;;
23628;SDS011;11991;57.150;-2.134;2023-06-05T11:40:50;1.75;;;0.90;;
23628;SDS011;11991;57.150;-2.134;2023-06-05T11:43:18;1.08;;;0.98;;
23628;SDS011;11991;57.150;-2.134;2023-06-05T11:48:21;2.03;;;1.20;;
23628;SDS011;11991;57.150;-2.134;2023-06-05T11:50:53;1.10;;;1.00;;
23628;SDS011;11991;57.150;-2.134;2023-06-05T11:53:29;1.10;;;1.00;;
23628;SDS011;11991;57.150;-2.134;2023-06-05T11:55:58;1.40;;;1.00;;
23628;SDS011;11991;57.150;-2.134;2023-06-05T11:58:36;1.25;;;1.15;;
23628;SDS011;11991;57.150;-2.134;2023-06-05T12:03:31;1.50;;;1.10;;
23628;SDS011;11991;57.150;-2.134;2023-06-05T12:06:00;1.40;;;1.13;;
23628;SDS011;11991;57.150;-2.134;2023-06-05T12:08:29;1.02;;;0.90;;
23628;SDS011;11991;57.150;-2.134;2023-06-05T12:11:18;1.45;;;1.10;;
23628;SDS011;11991;57.150;-2.134;2023-06-05T12:13:51;1.60;;;1.27;;
23628;SDS011;11991;57.150;-2.134;2023-06-05T12:16:29;2.13;;;1.50;;
23628;SDS011;11991;57.150;-2.134;2023-06-05T12:18:59;1.27;;;0.95;;
23628;SDS011;11991;57.150;-2.134;2023-06-05T12:21:41;2.83;;;1.50;;
23628;SDS011;11991;57.150;-2.134;2023-06-05T12:24:10;1.20;;;1.05;;
23628;SDS011;11991;57.150;-2.134;2023-06-05T12:29:20;2.08;;;1.42;;
23628;SDS011;11991;57.150;-2.134;2023-06-05T12:31:59;1.50;;;1.30;;
23628;SDS011;11991;57.150;-2.134;2023-06-05T12:34:43;1.75;;;1.23;;
23628;SDS011;11991;57.150;-2.134;2023-06-05T12:37:28;1.40;;;1.27;;
23628;SDS011;11991;57.150;-2.134;2023-06-05T12:40:01;1.60;;;1.30;;
23628;SDS011;11991;57.150;-2.134;2023-06-05T12:42:37;1.35;;;1.20;;
23628;SDS011;11991;57.150;-2.134;2023-06-05T12:45:05;1.67;;;1.27;;
23628;SDS011;11991;57.150;-2.134;2023-06-05T12:47:33;1.45;;;1.35;;
23628;SDS011;11991;57.150;-2.134;2023-06-05T12:50:02;1.40;;;1.15;;
23628;SDS011;11991;57.150;-2.134;2023-06-05T12:52:30;1.50;;;1.40;;
23628;SDS011;11991;57.150;-2.134;2023-06-05T12:54:58;1.88;;;1.50;;
23628;SDS011;11991;57.150;-2.134;2023-06-05T12:57:26;1.60;;;1.45;;
23628;SDS011;11991;57.150;-2.134;2023-06-05T12:59:54;1.63;;;1.52;;
23628;SDS011;11991;57.150;-2.134;2023-06-05T13:02:22;1.10;;;1.00;;
23628;SDS011;11991;57.150;-2.134;2023-06-05T13:04:50;2.83;;;2.13;;
23628;SDS011;11991;57.150;-2.134;2023-06-05T13:07:17;1.60;;;1.50;;
23628;SDS011;11991;57.150;-2.134;2023-06-05T13:09:45;1.73;;;1.58;;
23628;SDS011;11991;57.150;-2.134;2023-06-05T13:12:12;1.40;;;1.27;;
23628;SDS011;11991;57.150;-2.134;2023-06-05T13:14:39;1.77;;;1.33;;
23628;SDS011;11991;57.150;-2.134;2023-06-05T13:17:06;1.52;;;1.38;;
23628;SDS011;11991;57.150;-2.134;2023-06-05T13:19:33;1.70;;;1.40;;
23628;SDS011;11991;57.150;-2.134;2023-06-05T13:22:01;2.33;;;1.55;;
23628;SDS011;11991;57.150;-2.134;2023-06-05T13:24:28;1.10;;;1.00;;
23628;SDS011;11991;57.150;-2.134;2023-06-05T13:26:55;1.45;;;1.10;;
23628;SDS011;11991;57.150;-2.134;2023-06-05T13:29:22;2.50;;;1.60;;
23628;SDS011;11991;57.150;-2.134;2023-06-05T13:31:50;1.98;;;1.10;;
23628;SDS011;11991;57.150;-2.134;2023-06-05T13:34:17;2.25;;;1.90;;
23628;SDS011;11991;57.150;-2.134;2023-06-05T13:36:44;1.42;;;1.23;;
23628;SDS011;11991;57.150;-2.134;2023-06-05T13:39:11;2.17;;;1.80;;
23628;SDS011;11991;57.150;-2.134;2023-06-05T13:41:39;1.50;;;1.30;;
23628;SDS011;11991;57.150;-2.134;2023-06-05T13:44:06;1.20;;;1.10;;
23628;SDS011;11991;57.150;-2.134;2023-06-05T13:46:33;4.18;;;2.25;;
23628;SDS011;11991;57.150;-2.134;2023-06-05T13:49:00;3.40;;;2.38;;
23628;SDS011;11991;57.150;-2.134;2023-06-05T13:51:28;3.17;;;1.85;;
23628;SDS011;11991;57.150;-2.134;2023-06-05T13:53:55;1.88;;;1.50;;
23628;SDS011;11991;57.150;-2.134;2023-06-05T13:56:24;2.70;;;2.38;;
23628;SDS011;11991;57.150;-2.134;2023-06-05T13:58:52;2.20;;;1.55;;
23628;SDS011;11991;57.150;-2.134;2023-06-05T14:01:19;2.38;;;2.03;;
23628;SDS011;11991;57.150;-2.134;2023-06-05T14:03:47;2.30;;;1.60;;
23628;SDS011;11991;57.150;-2.134;2023-06-05T14:06:16;1.65;;;1.50;;
23628;SDS011;11991;57.150;-2.134;2023-06-05T14:08:44;2.97;;;2.00;;
23628;SDS011;11991;57.150;-2.134;2023-06-05T14:11:12;1.77;;;1.48;;
23628;SDS011;11991;57.150;-2.134;2023-06-05T14:13:39;1.67;;;1.40;;
23628;SDS011;11991;57.150;-2.134;2023-06-05T14:16:08;2.05;;;1.55;;
23628;SDS011;11991;57.150;-2.134;2023-06-05T14:18:38;1.65;;;1.30;;
23628;SDS011;11991;57.150;-2.134;2023-06-05T14:21:06;2.95;;;2.10;;
23628;SDS011;11991;57.150;-2.134;2023-06-05T14:23:33;2.80;;;1.50;;
23628;SDS011;11991;57.150;-2.134;2023-06-05T14:26:00;1.73;;;1.40;;
23628;SDS011;11991;57.150;-2.134;2023-06-05T14:28:27;2.00;;;1.45;;
23628;SDS011;11991;57.150;-2.134;2023-06-05T14:30:55;1.35;;;1.25;;
23628;SDS011;11991;57.150;-2.134;2023-06-05T14:33:22;2.15;;;1.35;;
23628;SDS011;11991;57.150;-2.134;2023-06-05T14:35:49;1.63;;;1.30;;
23628;SDS011;11991;57.150;-2.134;2023-06-05T14:38:17;1.55;;;1.45;;
23628;SDS011;11991;57.150;-2.134;2023-06-05T14:40:44;2.55;;;1.48;;
23628;SDS011;11991;57.150;-2.134;2023-06-05T14:43:11;1.25;;;1.15;;
23628;SDS011;11991;57.150;-2.134;2023-06-05T14:45:38;2.35;;;1.55;;
23628;SDS011;11991;57.150;-2.134;2023-06-05T14:48:07;1.52;;;1.33;;
23628;SDS011;11991;57.150;-2.134;2023-06-05T14:50:37;2.28;;;1.77;;
23628;SDS011;11991;57.150;-2.134;2023-06-05T14:53:04;1.90;;;1.48;;
23628;SDS011;11991;57.150;-2.134;2023-06-05T14:55:32;1.63;;;1.50;;
23628;SDS011;11991;57.150;-2.134;2023-06-05T14:57:59;2.95;;;1.80;;
23628;SDS011;11991;57.150;-2.134;2023-06-05T15:00:26;1.60;;;1.33;;
23628;SDS011;11991;57.150;-2.134;2023-06-05T15:02:53;1.75;;;1.30;;
23628;SDS011;11991;57.150;-2.134;2023-06-05T15:05:20;1.95;;;1.25;;
23628;SDS011;11991;57.150;-2.134;2023-06-05T15:07:48;3.08;;;2.20;;
23628;SDS011;11991;57.150;-2.134;2023-06-05T15:10:15;1.50;;;1.40;;
23628;SDS011;11991;57.150;-2.134;2023-06-05T15:12:42;2.05;;;1.45;;
23628;SDS011;11991;57.150;-2.134;2023-06-05T15:15:10;1.77;;;1.50;;
23628;SDS011;11991;57.150;-2.134;2023-06-05T15:17:40;1.73;;;1.55;;
23628;SDS011;11991;57.150;-2.134;2023-06-05T15:20:08;1.85;;;1.38;;
23628;SDS011;11991;57.150;-2.134;2023-06-05T15:22:36;2.22;;;1.77;;
23628;SDS011;11991;57.150;-2.134;2023-06-05T15:25:03;1.52;;;1.23;;
23628;SDS011;11991;57.150;-2.134;2023-06-05T15:27:30;4.03;;;2.50;;
23628;SDS011;11991;57.150;-2.134;2023-06-05T15:29:57;2.40;;;1.73;;
23628;SDS011;11991;57.150;-2.134;2023-06-05T15:32:24;1.77;;;1.60;;
23628;SDS011;11991;57.150;-2.134;2023-06-05T15:34:52;2.25;;;1.45;;
23628;SDS011;11991;57.150;-2.134;2023-06-05T15:37:19;2.17;;;1.80;;